createdAt,value
2022-09-21T00:01:33.901Z,5.98
2022-09-21T00:04:03.835Z,5.90
2022-09-21T00:06:35.028Z,5.96
2022-09-21T00:09:05.361Z,6.00
2022-09-21T00:11:35.528Z,5.94
2022-09-21T00:14:12.510Z,5.92
2022-09-21T00:16:43.145Z,5.92
2022-09-21T00:19:12.072Z,5.90
2022-09-21T00:21:40.158Z,5.90
2022-09-21T00:24:08.356Z,5.80
2022-09-21T00:26:36.223Z,5.70
2022-09-21T00:29:05.037Z,5.70
2022-09-21T00:31:34.982Z,5.70
2022-09-21T00:34:03.884Z,5.66
2022-09-21T00:36:31.725Z,5.70
2022-09-21T00:39:01.792Z,5.60
2022-09-21T00:41:32.876Z,5.62
2022-09-21T00:44:30.128Z,5.60
2022-09-21T00:47:09.765Z,5.60
2022-09-21T00:49:39.467Z,5.60
2022-09-21T00:52:08.534Z,5.54
2022-09-21T00:54:48.576Z,5.50
2022-09-21T00:57:21.560Z,5.50
2022-09-21T00:59:54.785Z,5.50
2022-09-21T01:02:23.497Z,5.46
2022-09-21T01:04:57.573Z,5.50
2022-09-21T01:07:33.804Z,5.50
2022-09-21T01:10:10.535Z,5.56
2022-09-21T01:13:07.093Z,5.50
2022-09-21T01:15:34.783Z,5.50
2022-09-21T01:18:32.861Z,5.50
2022-09-21T01:21:12.489Z,5.50
2022-09-21T01:24:16.092Z,5.42
2022-09-21T01:27:18.317Z,5.40
2022-09-21T01:29:59.241Z,5.30
2022-09-21T01:32:51.829Z,5.16
2022-09-21T01:35:28.871Z,5.10
2022-09-21T01:38:12.570Z,5.10
2022-09-21T01:40:43.962Z,5.10
2022-09-21T01:43:39.186Z,5.10
2022-09-21T01:46:16.398Z,5.00
2022-09-21T01:48:50.293Z,4.90
2022-09-21T01:51:21.962Z,4.80
2022-09-21T01:53:58.527Z,4.70
2022-09-21T01:56:36.193Z,4.64
2022-09-21T01:59:16.106Z,4.60
2022-09-21T02:01:53.765Z,4.60
2022-09-21T02:04:22.029Z,4.60
2022-09-21T02:06:51.452Z,4.60
2022-09-21T02:09:20.515Z,4.60
2022-09-21T02:11:48.397Z,4.60
2022-09-21T02:14:23.972Z,4.60
2022-09-21T02:17:31.439Z,4.60
2022-09-21T02:20:15.488Z,4.60
2022-09-21T02:23:01.080Z,4.60
2022-09-21T02:25:37.635Z,4.56
2022-09-21T02:28:34.980Z,4.50
2022-09-21T02:31:54.940Z,4.50
2022-09-21T02:34:51.008Z,4.48
2022-09-21T02:37:33.190Z,4.50
2022-09-21T02:40:26.565Z,4.50
2022-09-21T02:43:01.417Z,4.50
2022-09-21T02:45:45.288Z,4.50
2022-09-21T02:48:20.788Z,4.50
2022-09-21T02:50:54.776Z,4.42
2022-09-21T02:53:33.104Z,4.36
2022-09-21T02:56:07.409Z,4.30
2022-09-21T02:58:42.806Z,4.24
2022-09-21T03:01:14.576Z,4.20
2022-09-21T03:03:42.889Z,4.20
2022-09-21T03:06:11.185Z,4.14
2022-09-21T03:08:39.681Z,4.10
2022-09-21T03:11:07.943Z,4.10
2022-09-21T03:13:36.841Z,4.12
2022-09-21T03:16:07.561Z,4.10
2022-09-21T03:18:35.676Z,4.10
2022-09-21T03:21:03.741Z,4.06
2022-09-21T03:23:31.490Z,4.00
2022-09-21T03:25:59.723Z,4.00
2022-09-21T03:28:27.550Z,3.90
2022-09-21T03:30:55.290Z,3.90
2022-09-21T03:33:25.309Z,3.90
2022-09-21T03:35:53.093Z,3.90
2022-09-21T03:38:24.803Z,4.00
2022-09-21T03:40:52.544Z,4.02
2022-09-21T03:43:20.260Z,4.04
2022-09-21T03:45:48.428Z,4.00
2022-09-21T03:48:16.708Z,4.00
2022-09-21T03:50:45.108Z,4.00
2022-09-21T03:53:13.294Z,4.06
2022-09-21T03:55:41.997Z,4.00
2022-09-21T03:58:10.228Z,4.00
2022-09-21T04:00:39.413Z,4.00
2022-09-21T04:03:07.325Z,4.00
2022-09-21T04:05:35.106Z,4.00
2022-09-21T04:08:02.907Z,3.90
2022-09-21T04:10:33.266Z,3.90
2022-09-21T04:13:04.457Z,3.80
2022-09-21T04:15:32.736Z,3.80
2022-09-21T04:18:00.521Z,3.70
2022-09-21T04:20:28.209Z,3.70
2022-09-21T04:22:56.144Z,3.64
2022-09-21T04:25:24.042Z,3.60
2022-09-21T04:27:52.467Z,3.60
2022-09-21T04:30:20.487Z,3.60
2022-09-21T04:32:48.377Z,3.60
2022-09-21T04:35:16.232Z,3.60
2022-09-21T04:37:43.986Z,3.64
2022-09-21T04:40:11.745Z,3.62
2022-09-21T04:42:39.602Z,3.70
2022-09-21T04:45:08.437Z,3.70
2022-09-21T04:47:36.140Z,3.62
2022-09-21T04:50:04.916Z,3.60
2022-09-21T04:52:32.663Z,3.60
2022-09-21T04:55:00.353Z,3.60
2022-09-21T04:57:28.285Z,3.50
2022-09-21T04:59:56.337Z,3.60
2022-09-21T05:02:24.305Z,3.60
2022-09-21T05:04:52.422Z,3.60
2022-09-21T05:07:20.072Z,3.50
2022-09-21T05:10:03.411Z,3.50
2022-09-21T05:12:33.670Z,3.50
2022-09-21T05:15:02.194Z,3.40
2022-09-21T05:17:32.708Z,3.40
2022-09-21T05:20:00.429Z,3.40
2022-09-21T05:22:28.542Z,3.40
2022-09-21T05:24:56.381Z,3.40
2022-09-21T05:27:24.255Z,3.40
2022-09-21T05:29:53.294Z,3.50
2022-09-21T05:32:28.188Z,3.50
2022-09-21T05:35:23.360Z,3.50
2022-09-21T05:38:18.553Z,3.52
2022-09-21T05:40:50.154Z,3.60
2022-09-21T05:43:18.630Z,3.58
2022-09-21T05:45:56.626Z,3.60
2022-09-21T05:48:34.754Z,3.60
2022-09-21T05:51:10.853Z,3.52
2022-09-21T05:54:09.956Z,3.50
2022-09-21T05:57:10.654Z,3.56
2022-09-21T06:00:01.551Z,3.60
2022-09-21T06:03:17.433Z,3.70
2022-09-21T06:05:46.601Z,3.70
2022-09-21T06:08:14.479Z,3.70
2022-09-21T06:10:42.521Z,3.70
2022-09-21T06:13:10.280Z,3.70
2022-09-21T06:15:38.564Z,3.70
2022-09-21T06:18:08.149Z,3.70
2022-09-21T06:20:36.382Z,3.70
2022-09-21T06:23:11.091Z,3.70
2022-09-21T06:25:39.830Z,3.70
2022-09-21T06:28:12.262Z,3.64
2022-09-21T06:30:42.476Z,3.70
2022-09-21T06:33:11.843Z,3.80
2022-09-21T06:35:40.692Z,3.90
2022-09-21T06:38:08.750Z,3.90
2022-09-21T06:40:37.646Z,4.02
2022-09-21T06:43:06.201Z,4.20
2022-09-21T06:45:34.569Z,4.30
2022-09-21T06:48:02.788Z,4.40
2022-09-21T06:50:30.628Z,4.50
2022-09-21T06:53:03.235Z,4.58
2022-09-21T06:55:32.519Z,4.70
2022-09-21T06:58:05.341Z,4.80
2022-09-21T07:00:33.703Z,4.88
2022-09-21T07:03:01.451Z,4.90
2022-09-21T07:05:29.867Z,4.90
2022-09-21T07:07:59.280Z,5.00
2022-09-21T07:10:28.589Z,5.00
2022-09-21T07:12:56.809Z,5.08
2022-09-21T07:15:28.940Z,5.10
2022-09-21T07:18:05.435Z,5.10
2022-09-21T07:20:34.858Z,5.20
2022-09-21T07:23:18.261Z,5.20
2022-09-21T07:25:50.529Z,5.20
2022-09-21T07:28:20.710Z,5.30
2022-09-21T07:30:48.839Z,5.30
2022-09-21T07:33:16.588Z,5.40
2022-09-21T07:35:53.080Z,5.40
2022-09-21T07:38:20.754Z,5.50
2022-09-21T07:40:50.598Z,5.60
2022-09-21T07:43:18.506Z,5.70
2022-09-21T07:45:56.242Z,5.70
2022-09-21T07:48:24.860Z,5.80
2022-09-21T07:50:53.677Z,5.80
2022-09-21T07:53:22.412Z,6.00
2022-09-21T07:55:50.401Z,6.00
2022-09-21T07:58:37.008Z,6.10
2022-09-21T08:01:06.725Z,6.20
2022-09-21T08:03:34.874Z,6.20
2022-09-21T08:06:03.233Z,6.26
2022-09-21T08:08:31.254Z,6.30
2022-09-21T08:11:06.872Z,6.40
2022-09-21T08:13:35.250Z,6.40
2022-09-21T08:16:04.233Z,6.40
2022-09-21T08:18:32.133Z,6.50
2022-09-21T08:21:02.516Z,6.66
2022-09-21T08:23:30.920Z,6.70
2022-09-21T08:26:05.584Z,6.80
2022-09-21T08:28:38.155Z,6.90
2022-09-21T08:31:09.817Z,7.00
2022-09-21T08:33:37.660Z,7.02
2022-09-21T08:36:05.959Z,7.20
2022-09-21T08:38:38.356Z,7.40
2022-09-21T08:41:20.202Z,7.52
2022-09-21T08:44:04.719Z,7.70
2022-09-21T08:46:39.196Z,7.80
2022-09-21T08:49:27.732Z,7.90
2022-09-21T08:52:04.916Z,7.90
2022-09-21T08:54:44.028Z,7.90
2022-09-21T08:57:17.768Z,8.10
2022-09-21T08:59:50.099Z,8.20
2022-09-21T09:02:29.816Z,8.30
2022-09-21T09:05:43.761Z,8.50
2022-09-21T09:09:02.276Z,8.70
2022-09-21T09:12:00.479Z,8.90
2022-09-21T09:14:55.456Z,9.10
2022-09-21T09:17:46.756Z,9.30
2022-09-21T09:20:24.382Z,9.40
2022-09-21T09:23:25.721Z,9.50
2022-09-21T09:26:19.544Z,9.74
2022-09-21T09:29:13.185Z,9.94
2022-09-21T09:31:41.979Z,10.02
2022-09-21T09:34:31.251Z,10.10
2022-09-21T09:37:12.639Z,10.20
2022-09-21T09:39:42.927Z,10.30
2022-09-21T09:42:46.988Z,10.34
2022-09-21T09:45:48.661Z,10.50
2022-09-21T09:49:04.379Z,10.60
2022-09-21T09:51:35.383Z,10.62
2022-09-21T09:54:06.851Z,10.80
2022-09-21T09:56:37.519Z,10.80
2022-09-21T09:59:30.591Z,10.90
2022-09-21T10:02:08.983Z,11.10
2022-09-21T10:05:09.646Z,11.20
2022-09-21T10:07:46.197Z,11.30
2022-09-21T10:10:33.739Z,11.30
2022-09-21T10:13:25.786Z,11.40
2022-09-21T10:16:22.801Z,11.40
2022-09-21T10:18:59.313Z,11.60
2022-09-21T10:21:35.801Z,11.70
2022-09-21T10:24:49.040Z,11.70
2022-09-21T10:27:24.999Z,11.90
2022-09-21T10:29:53.039Z,11.92
2022-09-21T10:32:29.571Z,12.00
2022-09-21T10:35:13.385Z,12.00
2022-09-21T10:37:54.637Z,12.10
2022-09-21T10:40:23.108Z,12.20
2022-09-21T10:42:56.213Z,12.40
2022-09-21T10:45:31.811Z,12.54
2022-09-21T10:48:17.948Z,12.70
2022-09-21T10:50:51.954Z,12.88
2022-09-21T10:53:36.348Z,13.00
2022-09-21T10:56:22.522Z,13.10
2022-09-21T10:59:26.674Z,13.20
2022-09-21T11:01:58.983Z,13.30
2022-09-21T11:04:43.511Z,13.40
2022-09-21T11:07:42.162Z,13.54
2022-09-21T11:10:50.125Z,13.70
2022-09-21T11:13:40.963Z,13.64
2022-09-21T11:16:28.693Z,13.70
2022-09-21T11:19:25.087Z,13.60
2022-09-21T11:22:22.623Z,13.60
2022-09-21T11:25:24.993Z,13.50
2022-09-21T11:28:06.128Z,13.60
2022-09-21T11:31:19.484Z,13.70
2022-09-21T11:34:22.644Z,13.90
2022-09-21T11:37:06.112Z,14.10
2022-09-21T11:40:20.324Z,14.32
2022-09-21T11:43:29.776Z,14.60
2022-09-21T11:46:24.936Z,14.70
2022-09-21T11:49:17.189Z,14.80
2022-09-21T11:52:09.428Z,14.98
2022-09-21T11:54:52.364Z,15.20
2022-09-21T11:57:28.517Z,15.36
2022-09-21T12:00:23.604Z,15.70
2022-09-21T12:03:45.972Z,16.00
2022-09-21T12:06:32.473Z,16.30
2022-09-21T12:09:18.506Z,16.50
2022-09-21T12:11:48.900Z,16.70
2022-09-21T12:14:58.453Z,16.80
2022-09-21T12:18:09.208Z,16.98
2022-09-21T12:21:06.649Z,17.08
2022-09-21T12:23:57.698Z,17.10
2022-09-21T12:26:44.632Z,17.20
2022-09-21T12:29:47.752Z,17.30
2022-09-21T12:32:49.653Z,17.40
2022-09-21T12:35:56.821Z,17.60
2022-09-21T12:41:34.458Z,17.90
2022-09-21T12:44:26.357Z,17.98
2022-09-21T12:47:42.816Z,18.10
2022-09-21T12:50:41.457Z,18.20
2022-09-21T12:53:21.252Z,18.20
2022-09-21T12:56:33.539Z,18.30
2022-09-21T12:59:22.841Z,18.40
2022-09-21T13:02:40.615Z,18.50
2022-09-21T13:05:28.046Z,18.50
2022-09-21T13:08:19.843Z,18.50
2022-09-21T13:11:07.966Z,18.50
2022-09-21T13:13:52.950Z,18.40
2022-09-21T13:16:31.067Z,18.34
2022-09-21T13:19:16.982Z,18.30
2022-09-21T13:21:45.300Z,18.14
2022-09-21T13:24:31.066Z,18.08
2022-09-21T13:27:06.907Z,18.00
2022-09-21T13:29:40.295Z,17.90
2022-09-21T13:32:11.594Z,17.80
2022-09-21T13:34:45.381Z,17.70
2022-09-21T13:37:27.411Z,17.54
2022-09-21T13:39:57.995Z,17.50
2022-09-21T13:42:33.179Z,17.40
2022-09-21T13:45:07.190Z,17.30
2022-09-21T13:47:45.890Z,17.20
2022-09-21T13:50:41.978Z,17.20
2022-09-21T13:53:40.118Z,17.20
2022-09-21T13:56:30.144Z,17.12
2022-09-21T13:59:00.087Z,17.10
2022-09-21T14:01:46.697Z,17.10
2022-09-21T14:04:27.973Z,17.10
2022-09-21T14:07:02.689Z,17.00
2022-09-21T14:09:43.037Z,16.94
2022-09-21T14:12:25.250Z,16.90
2022-09-21T14:15:36.769Z,16.88
2022-09-21T14:18:19.255Z,16.80
2022-09-21T14:21:20.455Z,16.80
2022-09-21T14:24:06.946Z,16.80
2022-09-21T14:26:41.351Z,16.80
2022-09-21T14:29:54.012Z,16.80
2022-09-21T14:32:26.938Z,16.70
2022-09-21T14:35:11.087Z,16.70
2022-09-21T14:37:48.549Z,16.70
2022-09-21T14:40:27.624Z,16.70
2022-09-21T14:43:00.729Z,16.70
2022-09-21T14:46:17.861Z,16.70
2022-09-21T14:49:23.267Z,16.70
2022-09-21T14:52:38.632Z,16.70
2022-09-21T14:55:40.801Z,16.60
2022-09-21T14:58:58.997Z,16.60
2022-09-21T15:01:34.084Z,16.70
2022-09-21T15:04:30.527Z,16.70
2022-09-21T15:07:46.438Z,16.76
2022-09-21T15:10:43.148Z,16.80
2022-09-21T15:13:39.711Z,16.80
2022-09-21T15:16:40.588Z,16.90
2022-09-21T15:19:21.950Z,16.98
2022-09-21T15:22:23.976Z,17.00
2022-09-21T15:24:58.156Z,17.06
2022-09-21T15:27:35.105Z,17.10
2022-09-21T15:30:07.323Z,17.10
2022-09-21T15:32:43.476Z,17.10
2022-09-21T15:35:29.607Z,17.10
2022-09-21T15:38:02.759Z,17.20
2022-09-21T15:40:36.691Z,17.20
2022-09-21T15:43:17.089Z,17.20
2022-09-21T15:46:04.937Z,17.30
2022-09-21T15:48:38.332Z,17.30
2022-09-21T15:51:27.227Z,17.40
2022-09-21T15:54:15.370Z,17.40
2022-09-21T15:56:45.052Z,17.26
2022-09-21T15:59:21.188Z,17.10
2022-09-21T16:01:55.701Z,16.90
2022-09-21T16:04:27.283Z,16.80
2022-09-21T16:07:08.656Z,16.70
2022-09-21T16:09:42.923Z,16.60
2022-09-21T16:12:33.584Z,16.50
2022-09-21T16:15:25.053Z,16.50
2022-09-21T16:18:49.603Z,16.50
2022-09-21T16:21:35.419Z,16.50
2022-09-21T16:24:23.074Z,16.56
2022-09-21T16:27:01.596Z,16.60
2022-09-21T16:29:45.680Z,16.50
2022-09-21T16:32:19.518Z,16.50
2022-09-21T16:34:51.272Z,16.50
2022-09-21T16:37:26.916Z,16.44
2022-09-21T16:39:58.386Z,16.30
2022-09-21T16:42:32.974Z,16.20
2022-09-21T16:45:10.745Z,16.00
2022-09-21T16:47:39.482Z,15.90
2022-09-21T16:50:13.657Z,15.78
2022-09-21T16:52:41.381Z,15.64
2022-09-21T16:55:10.976Z,15.52
2022-09-21T16:57:38.716Z,15.50
2022-09-21T17:00:13.666Z,15.40
2022-09-21T17:02:43.223Z,15.30
2022-09-21T17:05:16.265Z,15.20
2022-09-21T17:07:59.491Z,15.20
2022-09-21T17:10:35.861Z,15.10
2022-09-21T17:13:06.431Z,15.00
2022-09-21T17:15:36.437Z,15.00
2022-09-21T17:18:05.198Z,14.90
2022-09-21T17:20:41.249Z,14.80
2022-09-21T17:23:09.946Z,14.80
2022-09-21T17:25:38.097Z,14.70
2022-09-21T17:28:18.137Z,14.60
2022-09-21T17:30:46.896Z,14.60
2022-09-21T17:33:15.252Z,14.50
2022-09-21T17:35:43.130Z,14.50
2022-09-21T17:38:14.523Z,14.40
2022-09-21T17:40:43.780Z,14.40
2022-09-21T17:43:38.870Z,14.30
2022-09-21T17:46:10.896Z,14.30
2022-09-21T17:48:41.082Z,14.22
2022-09-21T17:51:11.361Z,14.22
2022-09-21T17:53:40.971Z,14.20
2022-09-21T17:56:34.812Z,14.20
2022-09-21T17:59:05.853Z,14.10
2022-09-21T18:01:40.017Z,14.08
2022-09-21T18:04:12.102Z,14.00
2022-09-21T18:06:40.530Z,14.00
2022-09-21T18:09:13.510Z,13.92
2022-09-21T18:11:57.006Z,13.90
2022-09-21T18:15:05.007Z,13.90
2022-09-21T18:18:10.148Z,13.80
2022-09-21T18:21:02.202Z,13.80
2022-09-21T18:24:19.712Z,13.70
2022-09-21T18:26:49.300Z,13.70
2022-09-21T18:29:39.783Z,13.70
2022-09-21T18:32:47.193Z,13.60
2022-09-21T18:35:51.364Z,13.50
2022-09-21T18:38:43.184Z,13.50
2022-09-21T18:41:46.846Z,13.52
2022-09-21T18:44:35.914Z,13.50
2022-09-21T18:47:19.179Z,13.40
2022-09-21T18:50:15.911Z,13.30
2022-09-21T18:53:15.651Z,13.30
2022-09-21T18:55:45.119Z,13.20
2022-09-21T18:58:15.020Z,13.10
2022-09-21T19:00:43.690Z,13.00
2022-09-21T19:03:18.523Z,12.90
2022-09-21T19:06:04.053Z,12.90
2022-09-21T19:09:02.839Z,12.90
2022-09-21T19:11:54.831Z,12.80
2022-09-21T19:14:45.741Z,12.80
2022-09-21T19:17:50.535Z,12.70
2022-09-21T19:20:56.244Z,12.66
2022-09-21T19:24:03.037Z,12.60
2022-09-21T19:27:29.897Z,12.50
2022-09-21T19:30:26.989Z,12.40
2022-09-21T19:32:58.267Z,12.30
2022-09-21T19:35:28.205Z,12.30
2022-09-21T19:38:00.078Z,12.20
2022-09-21T19:40:37.531Z,12.08
2022-09-21T19:43:44.709Z,11.94
2022-09-21T19:46:33.571Z,11.90
2022-09-21T19:49:14.021Z,11.90
2022-09-21T19:51:47.322Z,11.90
2022-09-21T19:54:44.523Z,11.80
2022-09-21T19:57:40.245Z,11.70
2022-09-21T20:00:17.267Z,11.52
2022-09-21T20:03:03.536Z,11.58
2022-09-21T20:05:55.966Z,11.60
2022-09-21T20:09:00.317Z,11.50
2022-09-21T20:11:57.241Z,11.40
2022-09-21T20:14:32.609Z,11.40
2022-09-21T20:17:10.428Z,11.30
2022-09-21T20:20:08.969Z,11.20
2022-09-21T20:22:40.626Z,11.20
2022-09-21T20:25:15.395Z,11.10
2022-09-21T20:27:57.617Z,11.00
2022-09-21T20:30:35.671Z,11.00
2022-09-21T20:33:22.691Z,11.00
2022-09-21T20:35:55.606Z,10.90
2022-09-21T20:38:23.580Z,10.80
2022-09-21T20:40:51.713Z,10.72
2022-09-21T20:43:20.396Z,10.70
2022-09-21T20:45:49.375Z,10.60
2022-09-21T20:48:17.626Z,10.60
2022-09-21T20:50:50.708Z,10.50
2022-09-21T20:53:20.354Z,10.40
2022-09-21T20:55:57.818Z,10.30
2022-09-21T20:58:26.354Z,10.22
2022-09-21T21:00:58.771Z,10.20
2022-09-21T21:03:27.081Z,10.20
2022-09-21T21:06:11.633Z,10.10
2022-09-21T21:08:40.759Z,10.10
2022-09-21T21:11:10.866Z,10.10
2022-09-21T21:13:38.844Z,10.10
2022-09-21T21:16:11.817Z,10.10
2022-09-21T21:18:41.747Z,10.00
2022-09-21T21:21:10.506Z,9.90
2022-09-21T21:23:57.346Z,9.80
2022-09-21T21:26:43.852Z,9.90
2022-09-21T21:29:12.448Z,9.90
2022-09-21T21:31:41.154Z,9.90
2022-09-21T21:34:10.161Z,9.80
2022-09-21T21:36:38.005Z,9.70
2022-09-21T21:39:07.428Z,9.66
2022-09-21T21:41:35.229Z,9.60
2022-09-21T21:44:04.061Z,9.60
2022-09-21T21:46:32.609Z,9.60
2022-09-21T21:49:03.371Z,9.60
2022-09-21T21:51:31.646Z,9.60
2022-09-21T21:54:00.988Z,9.50
2022-09-21T21:56:29.715Z,9.40
2022-09-21T21:58:57.607Z,9.30
2022-09-21T22:01:29.461Z,9.24
2022-09-21T22:04:00.840Z,9.20
2022-09-21T22:06:32.174Z,9.20
2022-09-21T22:09:00.921Z,9.20
2022-09-21T22:11:30.982Z,9.30
2022-09-21T22:14:01.591Z,9.20
2022-09-21T22:16:33.148Z,9.20
2022-09-21T22:19:04.893Z,9.20
2022-09-21T22:21:42.728Z,9.12
2022-09-21T22:24:11.700Z,9.00
2022-09-21T22:26:45.368Z,9.00
2022-09-21T22:29:15.541Z,8.90
2022-09-21T22:31:49.256Z,8.80
2022-09-21T22:34:17.524Z,8.74
2022-09-21T22:36:46.829Z,8.70
2022-09-21T22:39:14.613Z,8.66
2022-09-21T22:41:43.139Z,8.60
2022-09-21T22:44:11.942Z,8.60
2022-09-21T22:46:40.468Z,8.60
2022-09-21T22:49:08.799Z,8.58
2022-09-21T22:51:38.408Z,8.60
2022-09-21T22:54:06.893Z,8.52
2022-09-21T22:56:35.334Z,8.50
2022-09-21T22:59:05.441Z,8.40
2022-09-21T23:01:38.078Z,8.40
2022-09-21T23:04:13.145Z,8.34
2022-09-21T23:06:45.329Z,8.36
2022-09-21T23:09:18.529Z,8.38
2022-09-21T23:11:53.552Z,8.30
2022-09-21T23:14:23.343Z,8.30
2022-09-21T23:16:52.232Z,8.20
2022-09-21T23:19:20.246Z,8.20
2022-09-21T23:21:50.464Z,8.20
2022-09-21T23:24:20.035Z,8.20
2022-09-21T23:26:51.771Z,8.14
2022-09-21T23:29:20.402Z,8.10
2022-09-21T23:31:50.036Z,8.10
2022-09-21T23:34:18.123Z,8.00
2022-09-21T23:36:46.974Z,7.90
2022-09-21T23:39:15.878Z,7.90
2022-09-21T23:41:44.573Z,7.90
2022-09-21T23:44:12.346Z,7.90
2022-09-21T23:46:42.002Z,7.80
2022-09-21T23:49:11.481Z,7.72
2022-09-21T23:51:40.750Z,7.70
2022-09-21T23:54:08.912Z,7.70
2022-09-21T23:56:37.898Z,7.60
2022-09-21T23:59:06.099Z,7.68
